createdAt,value
2019-01-14T00:04:47.220Z,4.97
2019-01-14T00:09:54.713Z,13.40
2019-01-14T00:15:02.178Z,5.40
2019-01-14T00:20:09.469Z,6.37
2019-01-14T00:25:17.099Z,6.30
2019-01-14T00:30:23.671Z,5.10
2019-01-14T00:35:31.207Z,4.80
2019-01-14T00:40:38.600Z,5.83
2019-01-14T00:45:44.910Z,7.83
2019-01-14T00:50:52.558Z,5.07
2019-01-14T00:56:00.054Z,4.73
2019-01-14T01:01:06.330Z,4.23
2019-01-14T01:06:14.246Z,4.40
2019-01-14T01:11:21.742Z,5.00
2019-01-14T01:16:28.042Z,4.30
2019-01-14T01:21:35.034Z,4.00
2019-01-14T01:26:42.463Z,3.90
2019-01-14T01:31:50.187Z,2.97
2019-01-14T01:36:57.034Z,3.90
2019-01-14T01:42:03.763Z,4.37
2019-01-14T01:47:13.785Z,4.60
2019-01-14T01:52:21.226Z,4.67
2019-01-14T01:57:27.174Z,4.00
2019-01-14T02:02:34.435Z,4.40
2019-01-14T02:07:41.378Z,3.70
2019-01-14T02:12:48.975Z,4.70
2019-01-14T02:17:55.015Z,4.37
2019-01-14T02:23:02.112Z,4.60
2019-01-14T02:28:09.286Z,4.77
2019-01-14T02:33:16.835Z,4.63
2019-01-14T02:38:23.812Z,4.80
2019-01-14T02:43:30.556Z,4.30
2019-01-14T02:48:37.382Z,3.97
2019-01-14T02:53:46.527Z,4.87
2019-01-14T02:58:54.052Z,5.00
2019-01-14T03:04:01.990Z,4.87
2019-01-14T03:09:10.393Z,4.73
2019-01-14T03:14:17.288Z,4.57
2019-01-14T03:19:23.556Z,4.67
2019-01-14T03:24:31.307Z,4.30
2019-01-14T03:29:37.788Z,4.00
2019-01-14T03:34:44.076Z,3.90
2019-01-14T03:39:49.975Z,3.80
2019-01-14T03:44:56.039Z,2.70
2019-01-14T03:50:05.438Z,3.03
2019-01-14T03:55:15.449Z,2.73
2019-01-14T04:00:23.487Z,3.50
2019-01-14T04:05:30.994Z,4.67
2019-01-14T04:10:38.205Z,3.37
2019-01-14T04:15:44.846Z,3.57
2019-01-14T04:20:52.567Z,4.07
2019-01-14T04:25:59.519Z,4.90
2019-01-14T04:31:07.105Z,3.30
2019-01-14T04:36:14.503Z,4.90
2019-01-14T04:41:20.651Z,3.90
2019-01-14T04:46:28.322Z,3.17
2019-01-14T04:51:34.524Z,3.73
2019-01-14T04:56:42.286Z,3.73
2019-01-14T05:01:49.131Z,3.33
2019-01-14T05:06:55.091Z,3.20
2019-01-14T05:12:03.281Z,3.63
2019-01-14T05:17:09.480Z,2.83
2019-01-14T05:22:17.110Z,2.50
2019-01-14T05:27:26.946Z,2.70
2019-01-14T05:32:33.904Z,3.23
2019-01-14T05:37:41.622Z,6.03
2019-01-14T05:42:48.458Z,3.00
2019-01-14T05:47:54.516Z,2.93
2019-01-14T05:53:02.086Z,2.97
2019-01-14T05:58:10.104Z,3.40
2019-01-14T06:03:17.579Z,3.50
2019-01-14T06:08:24.001Z,2.70
2019-01-14T06:13:31.185Z,3.00
2019-01-14T06:18:38.636Z,3.23
2019-01-14T06:23:44.858Z,3.10
2019-01-14T06:28:52.582Z,4.10
2019-01-14T06:33:59.262Z,3.43
2019-01-14T06:39:09.795Z,3.43
2019-01-14T06:44:16.672Z,3.37
2019-01-14T06:49:23.770Z,3.13
2019-01-14T06:54:31.264Z,3.50
2019-01-14T06:59:40.987Z,3.40
2019-01-14T07:04:48.458Z,3.70
2019-01-14T07:09:54.546Z,3.30
2019-01-14T07:15:02.085Z,3.00
2019-01-14T07:20:08.587Z,3.43
2019-01-14T07:25:14.874Z,4.57
2019-01-14T07:30:22.601Z,3.50
2019-01-14T07:35:30.190Z,4.40
2019-01-14T07:40:37.288Z,3.70
2019-01-14T07:45:44.723Z,3.83
2019-01-14T07:50:52.538Z,4.00
2019-01-14T07:55:59.053Z,3.90
2019-01-14T08:01:05.442Z,4.00
2019-01-14T08:06:13.088Z,4.00
2019-01-14T08:11:20.787Z,9.97
2019-01-14T08:16:27.947Z,5.50
2019-01-14T08:21:33.900Z,5.40
2019-01-14T08:26:41.599Z,4.53
2019-01-14T08:31:48.563Z,4.60
2019-01-14T08:37:00.709Z,7.53
2019-01-14T08:42:04.414Z,5.90
2019-01-14T08:47:11.311Z,5.90
2019-01-14T08:52:18.631Z,4.30
2019-01-14T08:57:24.719Z,4.47
2019-01-14T09:02:32.163Z,4.43
2019-01-14T09:07:40.103Z,3.93
2019-01-14T09:12:47.360Z,4.73
2019-01-14T09:18:02.401Z,4.17
2019-01-14T09:23:05.166Z,5.37
2019-01-14T09:28:13.483Z,4.70
2019-01-14T09:33:20.856Z,6.70
2019-01-14T09:38:26.922Z,5.20
2019-01-14T09:43:33.799Z,6.07
2019-01-14T09:48:41.075Z,5.30
2019-01-14T09:53:48.791Z,4.67
2019-01-14T09:58:54.919Z,5.30
2019-01-14T10:04:02.782Z,5.53
2019-01-14T10:09:11.004Z,5.00
2019-01-14T10:14:17.877Z,5.80
2019-01-14T10:19:24.028Z,6.37
2019-01-14T10:24:31.035Z,6.40
2019-01-14T10:29:38.559Z,6.47
2019-01-14T10:34:45.102Z,6.20
2019-01-14T10:39:52.785Z,9.73
2019-01-14T10:44:59.317Z,6.00
2019-01-14T10:50:06.619Z,7.27
2019-01-14T10:55:14.241Z,6.53
2019-01-14T11:00:28.697Z,5.63
2019-01-14T11:05:34.591Z,6.00
2019-01-14T11:10:41.370Z,5.60
2019-01-14T11:15:47.904Z,7.00
2019-01-14T11:20:53.791Z,6.50
2019-01-14T11:26:01.388Z,6.20
2019-01-14T11:31:09.395Z,6.70
2019-01-14T11:36:17.135Z,6.43
2019-01-14T11:41:25.845Z,6.60
2019-01-14T11:46:33.475Z,6.07
2019-01-14T11:51:40.458Z,6.87
2019-01-14T11:56:46.830Z,6.20
2019-01-14T12:01:54.054Z,6.23
2019-01-14T12:07:01.526Z,6.90
2019-01-14T12:12:10.509Z,6.27
2019-01-14T12:17:17.815Z,5.70
2019-01-14T12:22:23.951Z,6.63
2019-01-14T12:27:31.670Z,5.87
2019-01-14T12:32:38.662Z,7.30
2019-01-14T12:37:45.082Z,6.13
2019-01-14T12:42:52.050Z,6.30
2019-01-14T12:47:59.249Z,7.03
2019-01-14T12:53:07.050Z,6.23
2019-01-14T12:58:14.247Z,5.60
2019-01-14T13:03:21.444Z,5.47
2019-01-14T13:08:28.251Z,4.70
2019-01-14T13:13:34.682Z,4.87
2019-01-14T13:18:41.155Z,4.70
2019-01-14T13:23:48.334Z,4.90
2019-01-14T13:28:54.859Z,5.63
2019-01-14T13:34:02.376Z,4.97
2019-01-14T13:39:12.118Z,3.63
2019-01-14T13:44:19.295Z,3.57
2019-01-14T13:49:25.319Z,3.50
2019-01-14T13:54:31.709Z,3.20
2019-01-14T13:59:38.664Z,3.33
2019-01-14T14:04:45.556Z,4.07
2019-01-14T14:09:53.291Z,3.10
2019-01-14T14:15:01.210Z,3.60
2019-01-14T14:20:10.488Z,3.87
2019-01-14T14:25:17.773Z,3.50
2019-01-14T14:30:29.900Z,3.90
2019-01-14T14:35:37.046Z,4.20
2019-01-14T14:40:43.914Z,4.50
2019-01-14T14:45:50.045Z,3.67
2019-01-14T14:50:56.588Z,3.60
2019-01-14T14:56:03.973Z,14.73
2019-01-14T15:01:11.704Z,4.67
2019-01-14T15:06:18.936Z,4.20
2019-01-14T15:11:24.946Z,5.30
2019-01-14T15:16:32.669Z,10.33
2019-01-14T15:21:38.809Z,6.20
2019-01-14T15:26:44.772Z,6.87
2019-01-14T15:31:52.084Z,8.87
2019-01-14T15:36:58.499Z,10.43
2019-01-14T15:42:04.861Z,11.80
2019-01-14T15:47:12.453Z,8.33
2019-01-14T15:52:19.416Z,8.13
2019-01-14T15:57:26.235Z,6.70
2019-01-14T16:02:36.842Z,7.67
2019-01-14T16:07:44.396Z,7.90
2019-01-14T16:12:52.107Z,8.80
2019-01-14T16:17:59.815Z,8.50
2019-01-14T16:23:07.706Z,8.50
2019-01-14T16:28:15.001Z,9.60
2019-01-14T16:33:21.737Z,10.03
2019-01-14T16:38:28.592Z,12.00
2019-01-14T16:43:34.770Z,14.87
2019-01-14T16:48:42.331Z,13.13
2019-01-14T16:53:49.096Z,12.37
2019-01-14T16:58:56.381Z,18.67
2019-01-14T17:04:04.293Z,17.10
2019-01-14T17:09:12.137Z,16.10
2019-01-14T17:14:19.336Z,21.80
2019-01-14T17:19:26.180Z,18.67
2019-01-14T17:24:33.746Z,17.20
2019-01-14T17:29:41.317Z,15.07
2019-01-14T17:34:49.056Z,14.90
2019-01-14T17:39:55.807Z,13.50
2019-01-14T17:45:03.805Z,14.33
2019-01-14T17:50:17.121Z,13.33
2019-01-14T17:55:24.203Z,13.50
2019-01-14T18:00:31.751Z,14.43
2019-01-14T18:05:38.632Z,13.90
2019-01-14T18:10:46.287Z,14.27
2019-01-14T18:15:53.967Z,13.53
2019-01-14T18:21:05.431Z,15.00
2019-01-14T18:26:10.081Z,18.77
2019-01-14T18:31:17.465Z,15.90
2019-01-14T18:36:24.431Z,19.13
2019-01-14T18:41:31.031Z,17.30
2019-01-14T18:46:37.774Z,14.50
2019-01-14T18:51:44.114Z,14.97
2019-01-14T18:56:51.455Z,17.60
2019-01-14T19:01:57.423Z,19.27
2019-01-14T19:07:05.099Z,22.03
2019-01-14T19:12:13.029Z,21.07
2019-01-14T19:17:19.123Z,21.33
2019-01-14T19:22:26.197Z,21.63
2019-01-14T19:27:33.858Z,19.07
2019-01-14T19:32:41.763Z,20.13
2019-01-14T19:37:49.530Z,17.17
2019-01-14T19:42:56.962Z,17.40
2019-01-14T19:48:04.674Z,23.10
2019-01-14T19:53:12.692Z,25.43
2019-01-14T19:58:20.306Z,23.07
2019-01-14T20:03:28.101Z,19.63
2019-01-14T20:08:34.180Z,18.30
2019-01-14T20:13:41.770Z,19.50
2019-01-14T20:18:49.068Z,20.50
2019-01-14T20:23:56.702Z,20.53
2019-01-14T20:29:04.606Z,22.03
2019-01-14T20:34:12.539Z,22.83
2019-01-14T20:39:20.053Z,24.17
2019-01-14T20:44:27.569Z,27.23
2019-01-14T20:49:33.837Z,23.80
2019-01-14T20:54:41.535Z,22.30
2019-01-14T20:59:48.386Z,18.97
2019-01-14T21:04:55.308Z,19.50
2019-01-14T21:10:05.328Z,17.67
2019-01-14T21:15:13.483Z,17.77
2019-01-14T21:20:23.189Z,15.47
2019-01-14T21:25:30.184Z,16.33
2019-01-14T21:30:36.551Z,10.20
2019-01-14T21:35:43.792Z,12.13
2019-01-14T21:40:50.490Z,11.30
2019-01-14T21:45:57.468Z,11.20
2019-01-14T21:51:03.766Z,11.03
2019-01-14T21:56:10.116Z,11.83
2019-01-14T22:01:17.299Z,14.83
2019-01-14T22:06:24.016Z,15.73
2019-01-14T22:11:38.360Z,13.60
2019-01-14T22:16:41.002Z,13.73
2019-01-14T22:21:47.219Z,13.30
2019-01-14T22:26:54.702Z,17.17
2019-01-14T22:32:02.454Z,17.27
2019-01-14T22:37:09.111Z,16.93
2019-01-14T22:42:15.777Z,16.13
2019-01-14T22:47:23.298Z,16.80
2019-01-14T22:52:29.778Z,15.90
2019-01-14T22:57:35.677Z,14.97
2019-01-14T23:02:43.573Z,13.73
2019-01-14T23:07:49.933Z,12.90
2019-01-14T23:12:55.903Z,13.10
2019-01-14T23:18:03.700Z,12.00
2019-01-14T23:23:14.692Z,12.57
2019-01-14T23:28:22.235Z,14.40
2019-01-14T23:33:29.836Z,12.60
2019-01-14T23:38:36.983Z,12.67
2019-01-14T23:43:46.032Z,12.70
2019-01-14T23:48:54.041Z,12.67
2019-01-14T23:54:01.305Z,12.07
2019-01-14T23:59:07.418Z,11.83
